Freetown, Kentucky
Current Conditions -  °F | °C
As of 12:15 PM on Monday 22 Dec 2014 (Local Time) from KGLW Reporting Station
Overcast Overcast  
Wind Chill: 12°   Ceiling: 2500
Heat Index: 12°   Visibility: 10mi
Dew Point:   Wind: 9mph
Humidity: 68%   Direction: 120°ESE
Pressure: 29.83"   Gusts: NA
Location:  36.6549°N, 85.8315°W
Report Text: KGLW 221815Z AUTO 12008KT 10SM OVC025 12/06 A2983 RMK AO2 T01170060
Loading
Personal Weather Stations






























Interactive Weather Map New forecast layout! Learn more

10-Day Weather Forecast

Advertisements
Track Severe Weather on mobile